createdAt,value
2023-09-24T00:01:41.611Z,2.33
2023-09-24T00:04:10.313Z,1.50
2023-09-24T00:06:38.199Z,1.42
2023-09-24T00:09:06.218Z,0.90
2023-09-24T00:11:34.258Z,1.65
2023-09-24T00:14:02.070Z,1.02
2023-09-24T00:16:30.018Z,1.90
2023-09-24T00:18:59.947Z,1.45
2023-09-24T00:21:27.789Z,0.82
2023-09-24T00:23:55.623Z,1.67
2023-09-24T00:26:23.727Z,1.23
2023-09-24T00:28:51.689Z,1.50
2023-09-24T00:31:19.744Z,1.77
2023-09-24T00:33:47.983Z,1.50
2023-09-24T00:36:17.803Z,1.80
2023-09-24T00:38:45.638Z,0.93
2023-09-24T00:41:15.089Z,1.50
2023-09-24T00:43:44.344Z,1.80
2023-09-24T00:46:15.120Z,1.65
2023-09-24T00:48:45.566Z,1.70
2023-09-24T00:51:18.885Z,1.83
2023-09-24T00:56:16.477Z,1.73
2023-09-24T00:58:47.869Z,1.40
2023-09-24T01:01:16.274Z,1.27
2023-09-24T01:03:44.448Z,1.60
2023-09-24T01:06:12.463Z,1.50
2023-09-24T01:08:43.448Z,0.90
2023-09-24T01:11:12.484Z,1.50
2023-09-24T01:13:41.388Z,1.65
2023-09-24T01:16:10.658Z,1.17
2023-09-24T01:18:40.746Z,2.08
2023-09-24T01:21:13.888Z,0.93
2023-09-24T01:23:47.530Z,1.48
2023-09-24T01:26:16.373Z,1.17
2023-09-24T01:28:44.611Z,1.50
2023-09-24T01:31:13.300Z,1.30
2023-09-24T01:33:41.564Z,1.13
2023-09-24T01:36:10.335Z,0.88
2023-09-24T01:38:41.655Z,0.90
2023-09-24T01:41:12.191Z,0.80
2023-09-24T01:43:43.617Z,1.10
2023-09-24T01:46:14.902Z,1.98
2023-09-24T01:48:44.521Z,1.25
2023-09-24T01:51:12.701Z,1.13
2023-09-24T01:53:41.405Z,1.20
2023-09-24T01:56:11.954Z,1.40
2023-09-24T01:58:40.349Z,1.73
2023-09-24T02:01:09.423Z,0.93
2023-09-24T02:03:37.742Z,1.77
2023-09-24T02:06:08.309Z,1.58
2023-09-24T02:08:36.701Z,1.63
2023-09-24T02:11:04.902Z,2.25
2023-09-24T02:13:34.294Z,1.83
2023-09-24T02:16:03.720Z,2.45
2023-09-24T02:18:33.833Z,1.67
2023-09-24T02:21:02.127Z,1.33
2023-09-24T02:23:30.558Z,2.38
2023-09-24T02:25:58.691Z,1.45
2023-09-24T02:28:26.555Z,1.73
2023-09-24T02:30:56.408Z,2.35
2023-09-24T02:33:24.463Z,1.67
2023-09-24T02:35:52.463Z,1.60
2023-09-24T02:38:20.952Z,1.80
2023-09-24T02:40:48.814Z,1.58
2023-09-24T02:43:16.803Z,1.58
2023-09-24T02:45:44.709Z,1.00
2023-09-24T02:48:14.474Z,1.90
2023-09-24T02:50:42.396Z,1.45
2023-09-24T02:53:10.879Z,1.63
2023-09-24T02:55:39.015Z,1.25
2023-09-24T02:58:07.198Z,1.58
2023-09-24T03:00:37.571Z,1.88
2023-09-24T03:03:07.556Z,1.75
2023-09-24T03:05:37.595Z,1.20
2023-09-24T03:08:06.361Z,2.05
2023-09-24T03:10:35.496Z,1.52
2023-09-24T03:13:05.879Z,1.20
2023-09-24T03:15:34.223Z,1.20
2023-09-24T03:18:02.181Z,2.20
2023-09-24T03:20:30.893Z,1.35
2023-09-24T03:23:04.686Z,2.28
2023-09-24T03:25:33.846Z,1.23
2023-09-24T03:28:02.758Z,2.00
2023-09-24T03:30:31.456Z,1.98
2023-09-24T03:33:00.199Z,1.70
2023-09-24T03:35:29.891Z,1.40
2023-09-24T03:37:58.157Z,1.60
2023-09-24T03:40:28.869Z,1.08
2023-09-24T03:42:56.905Z,1.60
2023-09-24T03:45:26.411Z,2.08
2023-09-24T03:47:55.046Z,1.38
2023-09-24T03:50:22.981Z,1.60
2023-09-24T03:52:54.464Z,1.50
2023-09-24T03:55:22.419Z,1.35
2023-09-24T03:57:51.674Z,1.15
2023-09-24T04:00:22.210Z,1.60
2023-09-24T04:02:52.018Z,1.30
2023-09-24T04:05:24.321Z,1.48
2023-09-24T04:07:54.457Z,0.85
2023-09-24T04:10:23.998Z,1.65
2023-09-24T04:12:53.519Z,1.20
2023-09-24T04:15:23.664Z,1.55
2023-09-24T04:17:52.074Z,1.38
2023-09-24T04:20:22.067Z,1.20
2023-09-24T04:22:50.894Z,1.10
2023-09-24T04:25:22.381Z,1.30
2023-09-24T04:27:50.698Z,0.85
2023-09-24T04:30:22.259Z,1.95
2023-09-24T04:32:53.764Z,1.20
2023-09-24T04:35:22.431Z,1.27
2023-09-24T04:37:51.410Z,1.13
2023-09-24T04:40:19.843Z,1.42
2023-09-24T04:42:48.751Z,0.85
2023-09-24T04:45:18.969Z,0.82
2023-09-24T04:47:50.145Z,1.08
2023-09-24T04:50:18.509Z,0.95
2023-09-24T04:52:49.040Z,1.60
2023-09-24T04:55:17.254Z,1.17
2023-09-24T04:57:45.679Z,1.00
2023-09-24T05:00:16.162Z,1.40
2023-09-24T05:02:44.551Z,0.90
2023-09-24T05:05:15.676Z,1.20
2023-09-24T05:07:43.708Z,1.52
2023-09-24T05:10:11.728Z,1.40
2023-09-24T05:12:39.544Z,1.70
2023-09-24T05:15:09.041Z,1.25
2023-09-24T05:17:37.259Z,1.42
2023-09-24T05:20:06.748Z,0.82
2023-09-24T05:22:35.992Z,1.13
2023-09-24T05:25:04.292Z,1.65
2023-09-24T05:27:33.759Z,2.35
2023-09-24T05:30:02.050Z,1.10
2023-09-24T05:32:29.988Z,1.17
2023-09-24T05:34:57.896Z,0.73
2023-09-24T05:37:25.815Z,1.15
2023-09-24T05:39:55.029Z,1.25
2023-09-24T05:42:22.867Z,1.85
2023-09-24T05:44:50.755Z,1.90
2023-09-24T05:47:18.595Z,1.25
2023-09-24T05:49:46.358Z,1.33
2023-09-24T05:52:14.123Z,1.25
2023-09-24T05:54:42.760Z,2.47
2023-09-24T05:57:12.109Z,1.20
2023-09-24T05:59:40.114Z,0.90
2023-09-24T06:02:08.371Z,0.88
2023-09-24T06:04:36.427Z,1.55
2023-09-24T06:07:04.416Z,0.93
2023-09-24T06:09:32.389Z,1.27
2023-09-24T06:12:00.201Z,0.77
2023-09-24T06:14:29.895Z,1.23
2023-09-24T06:16:57.990Z,1.55
2023-09-24T06:19:25.729Z,1.38
2023-09-24T06:21:53.910Z,1.35
2023-09-24T06:24:22.634Z,1.65
2023-09-24T06:26:50.512Z,0.95
2023-09-24T06:29:18.413Z,1.75
2023-09-24T06:31:48.781Z,0.95
2023-09-24T06:34:16.659Z,1.25
2023-09-24T06:36:44.480Z,0.90
2023-09-24T06:39:15.292Z,1.77
2023-09-24T06:41:43.966Z,1.52
2023-09-24T06:44:12.303Z,1.35
2023-09-24T06:46:40.128Z,1.70
2023-09-24T06:49:09.308Z,2.10
2023-09-24T06:51:37.150Z,1.42
2023-09-24T06:54:05.101Z,1.70
2023-09-24T06:56:32.933Z,1.10
2023-09-24T06:59:00.776Z,1.98
2023-09-24T07:01:29.195Z,0.90
2023-09-24T07:03:57.215Z,1.17
2023-09-24T07:06:28.194Z,1.58
2023-09-24T07:08:56.241Z,1.20
2023-09-24T07:11:26.371Z,1.88
2023-09-24T07:13:54.502Z,1.15
2023-09-24T07:16:25.132Z,0.95
2023-09-24T07:18:54.253Z,1.23
2023-09-24T07:21:33.728Z,1.35
2023-09-24T07:24:06.314Z,1.02
2023-09-24T07:26:34.416Z,1.30
2023-09-24T07:29:02.340Z,1.25
2023-09-24T07:31:31.672Z,1.67
2023-09-24T07:34:02.330Z,2.30
2023-09-24T07:36:36.120Z,1.20
2023-09-24T07:39:11.197Z,0.90
2023-09-24T07:41:39.156Z,1.48
2023-09-24T07:44:07.679Z,0.90
2023-09-24T07:46:35.603Z,0.85
2023-09-24T07:49:06.762Z,1.45
2023-09-24T07:51:35.242Z,1.10
2023-09-24T07:54:03.201Z,1.17
2023-09-24T07:56:32.860Z,0.70
2023-09-24T07:59:01.916Z,0.75
2023-09-24T08:01:30.041Z,0.93
2023-09-24T08:03:58.049Z,1.13
2023-09-24T08:06:29.022Z,0.73
2023-09-24T08:09:09.062Z,1.30
2023-09-24T08:11:46.135Z,1.38
2023-09-24T08:14:13.974Z,1.02
2023-09-24T08:16:42.391Z,1.30
2023-09-24T08:19:10.393Z,1.00
2023-09-24T08:21:38.246Z,0.98
2023-09-24T08:24:06.846Z,1.05
2023-09-24T08:26:35.108Z,2.13
2023-09-24T08:29:07.490Z,1.48
2023-09-24T08:31:36.462Z,1.08
2023-09-24T08:34:04.670Z,0.95
2023-09-24T08:36:32.598Z,1.00
2023-09-24T08:39:05.809Z,0.82
2023-09-24T08:41:34.891Z,0.60
2023-09-24T08:44:07.211Z,0.60
2023-09-24T08:46:36.583Z,0.90
2023-09-24T08:49:05.254Z,0.90
2023-09-24T08:51:35.098Z,0.57
2023-09-24T08:54:03.707Z,1.58
2023-09-24T08:56:31.725Z,1.08
2023-09-24T08:59:00.287Z,0.95
2023-09-24T09:01:29.511Z,0.85
2023-09-24T09:03:57.413Z,1.15
2023-09-24T09:06:32.912Z,0.95
2023-09-24T09:09:01.358Z,1.33
2023-09-24T09:11:39.664Z,0.82
2023-09-24T09:14:07.489Z,1.50
2023-09-24T09:16:56.639Z,0.52
2023-09-24T09:19:24.929Z,0.70
2023-09-24T09:21:53.745Z,1.17
2023-09-24T09:24:23.949Z,1.05
2023-09-24T09:26:55.916Z,0.93
2023-09-24T09:29:24.686Z,1.85
2023-09-24T09:31:55.660Z,0.93
2023-09-24T09:34:24.229Z,0.95
2023-09-24T09:36:52.682Z,0.88
2023-09-24T09:39:20.632Z,0.90
2023-09-24T09:41:51.737Z,1.15
2023-09-24T09:44:26.729Z,0.60
2023-09-24T09:47:01.363Z,0.80
2023-09-24T09:49:33.821Z,1.08
2023-09-24T09:52:03.601Z,0.90
2023-09-24T09:54:36.058Z,1.08
2023-09-24T09:57:06.207Z,0.60
2023-09-24T09:59:36.323Z,0.73
2023-09-24T10:02:06.989Z,0.98
2023-09-24T10:04:37.065Z,1.08
2023-09-24T10:07:06.567Z,0.93
2023-09-24T10:09:37.613Z,1.77
2023-09-24T10:12:08.272Z,0.73
2023-09-24T10:14:38.294Z,1.27
2023-09-24T10:17:41.133Z,0.63
2023-09-24T10:20:10.412Z,0.82
2023-09-24T10:22:41.613Z,0.88
2023-09-24T10:25:34.123Z,0.85
2023-09-24T10:28:08.765Z,1.27
2023-09-24T10:31:05.625Z,0.75
2023-09-24T10:34:00.636Z,0.75
2023-09-24T10:36:30.708Z,0.63
2023-09-24T10:39:11.735Z,1.50
2023-09-24T10:42:17.001Z,0.57
2023-09-24T10:44:45.071Z,1.10
2023-09-24T10:47:26.607Z,0.75
2023-09-24T10:50:03.995Z,0.70
2023-09-24T10:52:47.129Z,0.40
2023-09-24T10:55:16.692Z,0.60
2023-09-24T10:57:51.294Z,0.63
2023-09-24T11:00:20.103Z,1.05
2023-09-24T11:02:54.849Z,0.90
2023-09-24T11:05:22.935Z,0.50
2023-09-24T11:07:50.734Z,0.60
2023-09-24T11:10:19.878Z,0.63
2023-09-24T11:12:52.304Z,0.60
2023-09-24T11:15:21.065Z,0.68
2023-09-24T11:17:51.233Z,0.60
2023-09-24T11:20:22.113Z,0.77
2023-09-24T11:22:58.337Z,0.65
2023-09-24T11:25:26.355Z,0.38
2023-09-24T11:27:56.546Z,0.77
2023-09-24T11:30:28.120Z,0.60
2023-09-24T11:32:56.058Z,0.55
2023-09-24T11:35:26.646Z,1.10
2023-09-24T11:37:57.894Z,0.70
2023-09-24T11:40:26.368Z,1.00
2023-09-24T11:42:57.462Z,1.10
2023-09-24T11:45:49.579Z,0.50
2023-09-24T11:48:21.429Z,1.40
2023-09-24T11:50:51.144Z,0.50
2023-09-24T11:53:24.120Z,0.73
2023-09-24T11:55:54.070Z,0.75
2023-09-24T11:58:27.342Z,0.40
2023-09-24T12:00:56.226Z,0.70
2023-09-24T12:03:24.966Z,0.50
2023-09-24T12:05:53.274Z,0.63
2023-09-24T12:08:22.234Z,0.65
2023-09-24T12:10:52.041Z,0.70
2023-09-24T12:13:20.417Z,0.80
2023-09-24T12:15:49.687Z,0.77
2023-09-24T12:18:17.622Z,0.90
2023-09-24T12:20:46.343Z,1.00
2023-09-24T12:23:14.315Z,0.73
2023-09-24T12:25:44.622Z,0.85
2023-09-24T12:28:15.225Z,0.73
2023-09-24T12:30:44.304Z,0.80
2023-09-24T12:33:15.410Z,1.33
2023-09-24T12:35:43.998Z,1.30
2023-09-24T12:38:12.792Z,0.60
2023-09-24T12:40:40.670Z,1.25
2023-09-24T12:43:08.516Z,0.60
2023-09-24T12:45:36.383Z,1.13
2023-09-24T12:48:04.542Z,0.93
2023-09-24T12:50:35.428Z,0.85
2023-09-24T12:53:03.304Z,0.60
2023-09-24T12:55:31.360Z,1.08
2023-09-24T12:57:59.388Z,0.63
2023-09-24T13:00:27.233Z,0.93
2023-09-24T13:02:55.218Z,0.60
2023-09-24T13:05:24.627Z,0.65
2023-09-24T13:07:53.808Z,0.77
2023-09-24T13:10:21.631Z,0.63
2023-09-24T13:12:49.479Z,0.70
2023-09-24T13:15:17.366Z,0.98
2023-09-24T13:17:45.315Z,0.90
2023-09-24T13:20:14.641Z,0.60
2023-09-24T13:22:42.782Z,1.55
2023-09-24T13:25:14.846Z,1.27
2023-09-24T13:27:43.212Z,0.50
2023-09-24T13:30:11.433Z,0.73
2023-09-24T13:32:40.005Z,0.70
2023-09-24T13:35:09.078Z,0.70
2023-09-24T13:37:38.947Z,0.60
2023-09-24T13:40:22.771Z,0.50
2023-09-24T13:42:56.360Z,0.70
2023-09-24T13:45:25.112Z,1.00
2023-09-24T13:47:52.985Z,1.02
2023-09-24T13:50:20.923Z,0.95
2023-09-24T13:52:48.865Z,0.93
2023-09-24T13:55:16.816Z,0.75
2023-09-24T13:57:44.605Z,0.60
2023-09-24T14:00:14.816Z,0.73
2023-09-24T14:02:44.085Z,1.13
2023-09-24T14:05:12.014Z,0.65
2023-09-24T14:07:39.832Z,1.50
2023-09-24T14:10:25.589Z,0.70
2023-09-24T14:12:53.340Z,0.70
2023-09-24T14:15:22.548Z,1.10
2023-09-24T14:18:02.806Z,1.25
2023-09-24T14:20:38.161Z,0.88
2023-09-24T14:23:06.017Z,0.73
2023-09-24T14:25:39.057Z,0.98
2023-09-24T14:28:07.410Z,1.00
2023-09-24T14:30:38.892Z,1.58
2023-09-24T14:33:07.837Z,0.73
2023-09-24T14:35:36.697Z,0.60
2023-09-24T14:38:05.095Z,1.52
2023-09-24T14:40:36.532Z,0.82
2023-09-24T14:43:04.744Z,1.23
2023-09-24T14:45:32.577Z,0.82
2023-09-24T14:48:02.534Z,1.15
2023-09-24T14:50:30.451Z,1.30
2023-09-24T14:52:58.338Z,0.95
2023-09-24T14:55:26.286Z,0.80
2023-09-24T14:57:55.750Z,0.77
2023-09-24T15:00:25.963Z,1.55
2023-09-24T15:02:57.029Z,1.02
2023-09-24T15:05:26.674Z,1.33
2023-09-24T15:07:54.737Z,1.23
2023-09-24T15:10:23.748Z,1.08
2023-09-24T15:12:53.364Z,1.50
2023-09-24T15:15:21.161Z,0.93
2023-09-24T15:17:49.091Z,0.90
2023-09-24T15:20:17.098Z,0.95
2023-09-24T15:22:47.008Z,0.98
2023-09-24T15:25:14.871Z,1.30
2023-09-24T15:27:42.705Z,1.55
2023-09-24T15:30:11.196Z,1.83
2023-09-24T15:32:39.069Z,1.20
2023-09-24T15:35:07.678Z,1.20
2023-09-24T15:37:35.476Z,1.45
2023-09-24T15:40:05.508Z,1.67
2023-09-24T15:42:33.421Z,1.77
2023-09-24T15:45:01.315Z,1.30
2023-09-24T15:47:29.167Z,1.67
2023-09-24T15:49:58.351Z,1.50
2023-09-24T15:52:26.265Z,1.48
2023-09-24T15:54:54.195Z,1.63
2023-09-24T15:57:24.285Z,1.38
2023-09-24T15:59:52.210Z,1.00
2023-09-24T16:02:20.171Z,0.73
2023-09-24T16:04:48.675Z,1.27
2023-09-24T16:07:16.546Z,1.33
2023-09-24T16:09:44.450Z,1.10
2023-09-24T16:12:12.322Z,1.10
2023-09-24T16:14:41.619Z,0.90
2023-09-24T16:17:09.695Z,0.73
2023-09-24T16:19:37.545Z,1.75
2023-09-24T16:22:05.606Z,1.00
2023-09-24T16:24:33.952Z,1.63
2023-09-24T16:27:01.862Z,1.38
2023-09-24T16:29:29.715Z,1.15
2023-09-24T16:31:58.962Z,0.93
2023-09-24T16:34:29.382Z,1.30
2023-09-24T16:36:57.175Z,1.25
2023-09-24T16:39:25.056Z,1.48
2023-09-24T16:41:52.841Z,1.67
2023-09-24T16:44:20.686Z,1.00
2023-09-24T16:46:49.745Z,1.48
2023-09-24T16:49:18.955Z,1.40
2023-09-24T16:51:48.544Z,1.70
2023-09-24T16:54:16.723Z,0.98
2023-09-24T16:56:44.554Z,1.33
2023-09-24T16:59:12.407Z,1.35
2023-09-24T17:01:40.465Z,1.52
2023-09-24T17:04:08.683Z,1.42
2023-09-24T17:06:37.991Z,1.52
2023-09-24T17:09:05.941Z,1.15
2023-09-24T17:11:33.744Z,1.13
2023-09-24T17:14:03.695Z,1.48
2023-09-24T17:16:31.565Z,1.10
2023-09-24T17:18:59.397Z,1.10
2023-09-24T17:21:29.113Z,0.68
2023-09-24T17:23:58.694Z,2.00
2023-09-24T17:26:26.897Z,3.30
2023-09-24T17:28:54.712Z,4.75
2023-09-24T17:31:23.397Z,4.47
2023-09-24T17:33:51.369Z,4.35
2023-09-24T17:36:20.960Z,4.93
2023-09-24T17:38:49.621Z,6.18
2023-09-24T17:41:19.185Z,4.22
2023-09-24T17:43:47.461Z,4.40
2023-09-24T17:46:18.084Z,4.68
2023-09-24T17:48:47.511Z,5.03
2023-09-24T17:51:16.534Z,5.13
2023-09-24T17:53:44.849Z,4.45
2023-09-24T17:56:13.828Z,3.53
2023-09-24T17:58:43.535Z,3.03
2023-09-24T18:01:13.456Z,2.10
2023-09-24T18:03:43.530Z,2.67
2023-09-24T18:06:11.986Z,2.05
2023-09-24T18:08:40.992Z,2.17
2023-09-24T18:11:09.103Z,2.22
2023-09-24T18:13:38.660Z,3.42
2023-09-24T18:16:08.264Z,3.83
2023-09-24T18:18:37.461Z,3.78
2023-09-24T18:21:06.474Z,3.20
2023-09-24T18:23:35.896Z,2.50
2023-09-24T18:26:04.760Z,1.67
2023-09-24T18:28:32.826Z,1.20
2023-09-24T18:31:01.746Z,1.10
2023-09-24T18:33:32.455Z,1.67
2023-09-24T18:36:01.918Z,1.10
2023-09-24T18:38:30.517Z,1.00
2023-09-24T18:40:58.756Z,1.80
2023-09-24T18:43:27.257Z,1.35
2023-09-24T18:46:01.759Z,1.85
2023-09-24T18:48:32.961Z,1.63
2023-09-24T18:51:01.269Z,1.58
2023-09-24T18:53:30.489Z,1.67
2023-09-24T18:56:02.729Z,1.55
2023-09-24T18:58:32.113Z,0.90
2023-09-24T19:01:00.658Z,1.40
2023-09-24T19:03:29.335Z,1.52
2023-09-24T19:05:58.735Z,1.15
2023-09-24T19:08:27.302Z,1.20
2023-09-24T19:10:55.973Z,0.82
2023-09-24T19:13:30.110Z,0.80
2023-09-24T19:16:06.300Z,1.27
2023-09-24T19:18:34.680Z,1.30
2023-09-24T19:21:05.346Z,1.08
2023-09-24T19:23:33.650Z,1.00
2023-09-24T19:26:12.128Z,1.38
2023-09-24T19:28:40.504Z,1.48
2023-09-24T19:31:09.348Z,1.35
2023-09-24T19:33:38.727Z,1.10
2023-09-24T19:36:09.093Z,1.30
2023-09-24T19:38:37.559Z,1.30
2023-09-24T19:41:07.008Z,1.02
2023-09-24T19:43:34.981Z,1.13
2023-09-24T19:46:03.431Z,1.45
2023-09-24T19:48:32.425Z,1.05
2023-09-24T19:51:00.974Z,1.10
2023-09-24T19:53:30.803Z,1.52
2023-09-24T19:55:59.248Z,0.98
2023-09-24T19:58:29.043Z,1.38
2023-09-24T20:01:01.383Z,1.35
2023-09-24T20:03:29.561Z,1.05
2023-09-24T20:05:58.123Z,1.70
2023-09-24T20:08:30.629Z,1.30
2023-09-24T20:11:00.720Z,1.17
2023-09-24T20:13:30.824Z,1.45
2023-09-24T20:15:59.151Z,1.13
2023-09-24T20:18:27.826Z,1.02
2023-09-24T20:20:56.153Z,1.08
2023-09-24T20:23:24.119Z,1.23
2023-09-24T20:25:54.259Z,0.85
2023-09-24T20:28:33.702Z,1.50
2023-09-24T20:31:12.234Z,1.00
2023-09-24T20:33:49.885Z,0.90
2023-09-24T20:36:26.845Z,1.65
2023-09-24T20:38:54.704Z,1.48
2023-09-24T20:41:22.557Z,1.10
2023-09-24T20:43:52.479Z,1.67
2023-09-24T20:46:23.307Z,1.27
2023-09-24T20:48:51.484Z,1.48
2023-09-24T20:51:19.772Z,1.30
2023-09-24T20:53:47.733Z,1.52
2023-09-24T20:56:16.101Z,1.40
2023-09-24T20:58:46.689Z,1.15
2023-09-24T21:01:16.025Z,1.92
2023-09-24T21:03:45.504Z,1.40
2023-09-24T21:06:13.820Z,0.80
2023-09-24T21:08:41.852Z,1.20
2023-09-24T21:11:09.807Z,1.38
2023-09-24T21:13:37.721Z,1.25
2023-09-24T21:16:08.976Z,1.02
2023-09-24T21:18:38.253Z,1.88
2023-09-24T21:21:06.184Z,1.20
2023-09-24T21:23:34.053Z,1.55
2023-09-24T21:26:03.132Z,1.15
2023-09-24T21:28:31.038Z,1.33
2023-09-24T21:31:04.505Z,1.67
2023-09-24T21:33:32.618Z,1.75
2023-09-24T21:36:02.018Z,1.48
2023-09-24T21:38:29.959Z,1.17
2023-09-24T21:40:58.141Z,1.40
2023-09-24T21:43:31.062Z,1.08
2023-09-24T21:48:27.706Z,1.05
2023-09-24T21:50:56.418Z,1.42
2023-09-24T21:53:25.757Z,1.77
2023-09-24T21:55:55.405Z,1.08
2023-09-24T21:58:23.321Z,1.05
2023-09-24T22:00:51.159Z,1.33
2023-09-24T22:03:19.927Z,1.38
2023-09-24T22:05:48.148Z,0.90
2023-09-24T22:08:16.028Z,1.95
2023-09-24T22:10:45.273Z,1.00
2023-09-24T22:13:13.071Z,1.65
2023-09-24T22:15:41.016Z,1.40
2023-09-24T22:18:08.946Z,1.23
2023-09-24T22:20:36.825Z,1.27
2023-09-24T22:23:05.009Z,1.50
2023-09-24T22:25:32.859Z,1.58
2023-09-24T22:28:02.107Z,1.10
2023-09-24T22:30:31.509Z,1.20
2023-09-24T22:32:59.933Z,1.42
2023-09-24T22:35:27.788Z,1.20
2023-09-24T22:37:55.710Z,1.60
2023-09-24T22:40:23.511Z,1.10
2023-09-24T22:42:51.288Z,0.60
2023-09-24T22:45:20.495Z,1.67
2023-09-24T22:47:48.549Z,1.48
2023-09-24T22:50:16.392Z,1.75
2023-09-24T22:52:44.255Z,1.23
2023-09-24T22:55:12.813Z,1.15
2023-09-24T22:57:41.746Z,1.75
2023-09-24T23:00:14.830Z,1.38
2023-09-24T23:02:44.324Z,1.15
2023-09-24T23:05:13.802Z,1.10
2023-09-24T23:07:42.140Z,1.23
2023-09-24T23:10:11.797Z,1.50
2023-09-24T23:12:39.783Z,0.90
2023-09-24T23:15:08.701Z,1.83
2023-09-24T23:17:36.582Z,1.40
2023-09-24T23:20:09.649Z,1.48
2023-09-24T23:22:37.440Z,2.65
2023-09-24T23:25:06.118Z,1.55
2023-09-24T23:27:33.955Z,1.73
2023-09-24T23:30:01.832Z,1.73
2023-09-24T23:32:30.466Z,1.17
2023-09-24T23:34:58.370Z,1.73
2023-09-24T23:37:28.061Z,1.33
2023-09-24T23:39:56.066Z,1.40
2023-09-24T23:42:25.789Z,1.63
2023-09-24T23:44:53.652Z,1.58
2023-09-24T23:47:22.462Z,1.40
2023-09-24T23:49:50.391Z,2.22
2023-09-24T23:52:18.218Z,1.40
2023-09-24T23:54:47.992Z,1.45
2023-09-24T23:57:15.965Z,1.30
2023-09-24T23:59:44.004Z,1.90
